Mars Hill, Louisiana
Current Conditions -  °F | °C
As of 5:35 PM on Saturday 22 Nov 2014 (Local Time) from KIER Reporting Station
Scattered Clouds Scattered Clouds  
Wind Chill: 65°   Ceiling: Unl
Heat Index: 65°   Visibility: 10mi
Dew Point: 59°   Wind: 6mph
Humidity: 80%   Direction: 110°ESE
Pressure: 29.94"   Gusts: NA
Location:  31.8476°N, 92.7651°W
Report Text: KIER 222335Z AUTO 11005KT 10SM SCT029 SCT039 19/15 A2994 RMK AO2 T01850150
Loading
Personal Weather Stations






























Interactive Weather Map New forecast layout! Learn more

10-Day Weather Forecast

Advertisements
Track Severe Weather on mobile